Time;durP1;ratioP1;P1;durP2;ratioP2;P2;SDS_P1;SDS_P2;PMS_P1;PMS_P2;Temp;Humidity;BMP_temperature;BMP_pressure;BME280_temperature;BME280_humidity;BME280_pressure;Samples;Min_cycle;Max_cycle;Signal;HPM_P1;HPM_P2
2022/06/12 00:01:16;;;;;;;;;;;;;;;;;;5090071;28;19920;-78
2022/06/12 00:04:02;;;;;;;;;;;;;;;;;;5089488;28;20299;-78
2022/06/12 00:06:49;;;;;;;;;;;;;;;;;;5080649;28;19908;-78
2022/06/12 00:09:35;;;;;;;;;;;;;;;;;;5089446;28;20479;-78
2022/06/12 00:12:22;;;;;;;;;;;;;;;;;;5073563;28;19916;-78
2022/06/12 00:15:08;;;;;;;;;;;;;;;;;;5080175;28;20364;-78
2022/06/12 00:17:55;;;;;;;;;;;;;;;;;;5085974;28;19979;-78
2022/06/12 00:20:41;;;;;;;;;;;;;;;;;;5082947;28;19923;-78
2022/06/12 00:23:28;;;;;;;;;;;;;;;;;;5088146;28;20422;-78
2022/06/12 00:26:14;;;;;;;;;;;;;;;;;;5075960;28;19928;-78
2022/06/12 00:29:01;;;;;;;;;;;;;;;;;;5081764;28;19915;-78
2022/06/12 00:31:47;;;;;;;;;;;;;;;;;;5084479;28;19919;-79
2022/06/12 00:34:34;;;;;;;;;;;;;;;;;;5079594;28;19931;-78
2022/06/12 00:37:21;;;;;;;;;;;;;;;;;;5082547;28;19916;-78
2022/06/12 00:40:07;;;;;;;;;;;;;;;;;;5076010;28;19912;-79
2022/06/12 00:42:54;;;;;;;;;;;;;;;;;;5097387;28;19916;-79
2022/06/12 00:45:40;;;;;;;;;;;;;;;;;;5083881;28;19936;-79
2022/06/12 00:48:27;;;;;;;;;;;;;;;;;;5069406;28;19915;-79
2022/06/12 00:51:13;;;;;;;;;;;;;;;;;;5077182;28;19913;-79
2022/06/12 00:54:00;;;;;;;;;;;;;;;;;;5084121;28;19912;-79
2022/06/12 00:56:47;;;;;;;;;;;;;;;;;;5108841;28;19912;-79
2022/06/12 00:59:34;;;;;;;;;;;;;;;;;;5083918;28;19923;-78
2022/06/12 01:02:20;;;;;;;;;;;;;;;;;;5074133;28;20383;-78
2022/06/12 01:08:12;;;;;;;;;;;;;;;;;;5101702;28;19908;-77
2022/06/12 01:10:58;;;;;;;;;;;;;;;;;;5096401;28;19908;-77
2022/06/12 01:13:45;;;;;;;;;;;;;;;;;;5090098;28;19918;-77
2022/06/12 01:16:31;;;;;;;;;;;;;;;;;;5075633;28;19923;-77
2022/06/12 01:19:18;;;;;;;;;;;;;;;;;;5056956;28;19914;-79
2022/06/12 01:22:04;;;;;;;;;;;;;;;;;;5069492;28;20284;-79
2022/06/12 01:24:51;;;;;;;;;;;;;;;;;;5076306;28;19920;-78
2022/06/12 01:27:37;;;;;;;;;;;;;;;;;;5083162;28;19916;-77
2022/06/12 01:30:24;;;;;;;;;;;;;;;;;;5081046;28;19912;-77
2022/06/12 01:33:10;;;;;;;;;;;;;;;;;;5092379;28;19911;-78
2022/06/12 01:35:57;;;;;;;;;;;;;;;;;;5088079;28;19908;-78
2022/06/12 01:38:43;;;;;;;;;;;;;;;;;;5087801;28;19924;-78
2022/06/12 01:41:30;;;;;;;;;;;;;;;;;;5083139;28;19920;-78
2022/06/12 01:44:16;;;;;;;;;;;;;;;;;;5068948;28;19916;-78
2022/06/12 01:47:03;;;;;;;;;;;;;;;;;;5087623;28;19912;-77
2022/06/12 01:49:49;;;;;;;;;;;;;;;;;;5075656;28;19918;-77
2022/06/12 01:52:36;;;;;;;;;;;;;;;;;;5080891;28;19921;-77
2022/06/12 01:55:22;;;;;;;;;;;;;;;;;;5090589;28;19918;-78
2022/06/12 01:58:09;;;;;;;;;;;;;;;;;;5069373;28;19909;-78
2022/06/12 02:00:55;;;;;;;;;;;;;;;;;;5078392;28;20575;-78
2022/06/12 02:03:43;;;;;;;;;;;;;;;;;;5075642;28;20351;-78
2022/06/12 02:06:29;;;;;;;;;;;;;;;;;;5070425;28;19916;-79
2022/06/12 02:09:16;;;;;;;;;;;;;;;;;;5059682;28;20387;-78
2022/06/12 02:15:07;;;;;;;;;;;;;;;;;;5076336;28;19912;-78
2022/06/12 02:17:54;;;;;;;;;;;;;;;;;;5069711;28;19934;-79
2022/06/12 02:20:40;;;;;;;;;;;;;;;;;;5090429;28;19923;-77
2022/06/12 02:23:26;;;;;;;;;;;;;;;;;;5085551;28;19920;-78
2022/06/12 02:26:13;;;;;;;;;;;;;;;;;;5075230;28;19914;-78
2022/06/12 02:28:59;;;;;;;;;;;;;;;;;;5079075;28;19908;-78
2022/06/12 02:31:46;;;;;;;;;;;;;;;;;;5089745;28;20364;-78
2022/06/12 02:34:33;;;;;;;;;;;;;;;;;;5085452;28;20388;-78
2022/06/12 02:37:20;;;;;;;;;;;;;;;;;;5084250;28;19931;-78
2022/06/12 02:40:07;;;;;;;;;;;;;;;;;;5071681;28;20273;-78
2022/06/12 02:42:53;;;;;;;;;;;;;;;;;;5073683;28;20372;-78
2022/06/12 02:45:40;;;;;;;;;;;;;;;;;;5072498;28;19909;-78
2022/06/12 02:48:26;;;;;;;;;;;;;;;;;;5063964;28;19916;-78
2022/06/12 02:51:13;;;;;;;;;;;;;;;;;;5089592;28;19908;-78
2022/06/12 02:54:00;;;;;;;;;;;;;;;;;;5077891;28;19909;-78
2022/06/12 02:56:46;;;;;;;;;;;;;;;;;;5077876;28;19912;-78
2022/06/12 02:59:33;;;;;;;;;;;;;;;;;;5083886;28;19908;-78
2022/06/12 03:02:19;;;;;;;;;;;;;;;;;;5080329;28;19920;-79
2022/06/12 03:05:06;;;;;;;;;;;;;;;;;;5082820;28;19913;-78
2022/06/12 03:07:52;;;;;;;;;;;;;;;;;;5100142;28;20463;-78
2022/06/12 03:10:39;;;;;;;;;;;;;;;;;;5074929;28;19916;-79
2022/06/12 03:13:25;;;;;;;;;;;;;;;;;;5083561;28;20261;-79
2022/06/12 03:16:12;;;;;;;;;;;;;;;;;;5083341;28;19919;-78
2022/06/12 03:18:58;;;;;;;;;;;;;;;;;;5073131;28;19908;-78
2022/06/12 03:21:45;;;;;;;;;;;;;;;;;;5068194;28;19927;-78
2022/06/12 03:24:31;;;;;;;;;;;;;;;;;;5075031;28;19912;-78
2022/06/12 03:27:18;;;;;;;;;;;;;;;;;;5079087;28;19919;-77
2022/06/12 03:30:05;;;;;;;;;;;;;;;;;;5072215;28;21215;-77
2022/06/12 03:32:51;;;;;;;;;;;;;;;;;;5076525;28;19920;-78
2022/06/12 03:35:38;;;;;;;;;;;;;;;;;;5091562;28;19912;-77
2022/06/12 03:38:24;;;;;;;;;;;;;;;;;;5091223;28;20180;-77
2022/06/12 03:41:11;;;;;;;;;;;;;;;;;;5079399;28;19922;-77
2022/06/12 03:43:57;;;;;;;;;;;;;;;;;;5064646;28;19912;-78
2022/06/12 03:46:44;;;;;;;;;;;;;;;;;;5078837;28;19919;-78
2022/06/12 03:49:30;;;;;;;;;;;;;;;;;;5071724;28;20404;-78
2022/06/12 03:52:19;;;;;;;;;;;;;;;;;;5076759;28;19909;-78
2022/06/12 03:55:05;;;;;;;;;;;;;;;;;;5090019;28;19920;-78
2022/06/12 03:57:52;;;;;;;;;;;;;;;;;;5090507;28;19912;-78
2022/06/12 04:00:38;;;;;;;;;;;;;;;;;;5087758;28;20391;-78
2022/06/12 04:03:25;;;;;;;;;;;;;;;;;;5066767;28;19919;-78
2022/06/12 04:06:12;;;;;;;;;;;;;;;;;;5078626;28;19909;-78
2022/06/12 04:09:00;;;;;;;;;;;;;;;;;;5088463;28;19915;-79
2022/06/12 04:11:47;;;;;;;;;;;;;;;;;;5074014;28;19916;-78
2022/06/12 04:14:33;;;;;;;;;;;;;;;;;;5080080;28;19915;-78
2022/06/12 04:17:21;;;;;;;;;;;;;;;;;;5071681;28;19942;-78
2022/06/12 04:20:08;;;;;;;;;;;;;;;;;;5083851;28;19912;-78
2022/06/12 04:22:55;;;;;;;;;;;;;;;;;;5066401;28;19946;-77
2022/06/12 04:25:41;;;;;;;;;;;;;;;;;;5084756;28;20305;-80
2022/06/12 04:28:28;;;;;;;;;;;;;;;;;;5065820;28;19915;-78
2022/06/12 04:31:14;;;;;;;;;;;;;;;;;;5093767;28;19915;-78
2022/06/12 04:34:01;;;;;;;;;;;;;;;;;;5072493;28;19915;-77
2022/06/12 04:36:47;;;;;;;;;;;;;;;;;;5086980;28;19920;-78
2022/06/12 04:39:35;;;;;;;;;;;;;;;;;;5079048;28;19927;-78
2022/06/12 04:42:21;;;;;;;;;;;;;;;;;;5088389;28;19916;-79
2022/06/12 04:45:08;;;;;;;;;;;;;;;;;;5090963;28;20565;-79
2022/06/12 04:47:57;;;;;;;;;;;;;;;;;;5084079;28;19916;-80
2022/06/12 04:50:47;;;;;;;;;;;;;;;;;;5080107;28;20240;-78
2022/06/12 04:53:38;;;;;;;;;;;;;;;;;;5072702;28;19912;-78
2022/06/12 04:56:24;;;;;;;;;;;;;;;;;;5079430;28;19913;-79
2022/06/12 04:59:10;;;;;;;;;;;;;;;;;;5084372;28;19912;-77
2022/06/12 05:01:57;;;;;;;;;;;;;;;;;;5090054;28;20368;-78
2022/06/12 05:04:43;;;;;;;;;;;;;;;;;;5075317;28;19912;-78
2022/06/12 05:07:30;;;;;;;;;;;;;;;;;;5087919;28;20471;-78
2022/06/12 05:10:16;;;;;;;;;;;;;;;;;;5082896;28;20364;-78
2022/06/12 05:13:03;;;;;;;;;;;;;;;;;;5086259;28;19908;-79
2022/06/12 05:15:49;;;;;;;;;;;;;;;;;;5079174;28;19909;-79
2022/06/12 05:18:36;;;;;;;;;;;;;;;;;;5080243;28;19920;-78
2022/06/12 05:21:22;;;;;;;;;;;;;;;;;;5075367;28;19912;-79
2022/06/12 05:24:09;;;;;;;;;;;;;;;;;;5087960;28;20287;-77
2022/06/12 05:26:55;;;;;;;;;;;;;;;;;;5072985;28;20475;-77
2022/06/12 05:29:42;;;;;;;;;;;;;;;;;;5076016;28;19919;-78
2022/06/12 05:32:28;;;;;;;;;;;;;;;;;;5085629;28;19912;-78
2022/06/12 05:35:15;;;;;;;;;;;;;;;;;;5074631;28;19919;-77
2022/06/12 05:38:01;;;;;;;;;;;;;;;;;;5074306;28;19928;-78
2022/06/12 05:40:48;;;;;;;;;;;;;;;;;;5080509;28;19916;-78
2022/06/12 05:43:34;;;;;;;;;;;;;;;;;;5069483;28;19916;-79
2022/06/12 05:46:21;;;;;;;;;;;;;;;;;;5081896;28;20311;-78
2022/06/12 05:49:07;;;;;;;;;;;;;;;;;;5070818;28;19912;-79
2022/06/12 05:51:54;;;;;;;;;;;;;;;;;;5081124;28;19919;-79
2022/06/12 05:54:42;;;;;;;;;;;;;;;;;;5058330;28;19919;-78
2022/06/12 05:57:28;;;;;;;;;;;;;;;;;;5083667;28;19909;-79
2022/06/12 06:00:15;;;;;;;;;;;;;;;;;;5090713;28;20018;-79
2022/06/12 06:03:02;;;;;;;;;;;;;;;;;;5073571;28;19916;-81
2022/06/12 06:05:48;;;;;;;;;;;;;;;;;;5080646;28;19934;-81
2022/06/12 06:08:35;;;;;;;;;;;;;;;;;;5085933;28;19916;-79
2022/06/12 06:11:21;;;;;;;;;;;;;;;;;;5077405;28;19908;-80
2022/06/12 06:14:08;;;;;;;;;;;;;;;;;;5077229;28;19919;-79
2022/06/12 06:16:55;;;;;;;;;;;;;;;;;;5076882;28;19912;-79
2022/06/12 06:19:41;;;;;;;;;;;;;;;;;;5071054;28;20352;-79
2022/06/12 06:22:28;;;;;;;;;;;;;;;;;;5078384;28;19922;-79
2022/06/12 06:25:14;;;;;;;;;;;;;;;;;;5071716;28;20382;-79
2022/06/12 06:28:01;;;;;;;;;;;;;;;;;;5079872;28;19912;-79
2022/06/12 06:30:47;;;;;;;;;;;;;;;;;;5075300;28;19926;-79
2022/06/12 06:33:34;;;;;;;;;;;;;;;;;;5073624;28;20380;-79
2022/06/12 06:36:20;;;;;;;;;;;;;;;;;;5090560;28;19908;-78
2022/06/12 06:39:07;;;;;;;;;;;;;;;;;;5087307;28;19920;-79
2022/06/12 06:41:53;;;;;;;;;;;;;;;;;;5083987;28;19916;-78
2022/06/12 06:47:45;;;;;;;;;;;;;;;;;;5080725;28;20360;-80
2022/06/12 06:50:31;;;;;;;;;;;;;;;;;;5059399;28;20265;-80
2022/06/12 06:53:18;;;;;;;;;;;;;;;;;;5079521;28;19908;-81
2022/06/12 06:56:04;;;;;;;;;;;;;;;;;;5085977;28;20318;-80
2022/06/12 06:58:51;;;;;;;;;;;;;;;;;;5079426;28;19909;-79
2022/06/12 07:01:37;;;;;;;;;;;;;;;;;;5066351;28;19912;-80
2022/06/12 07:04:24;;;;;;;;;;;;;;;;;;5080278;28;19992;-80
2022/06/12 07:07:10;;;;;;;;;;;;;;;;;;5084486;28;19919;-78
2022/06/12 07:09:57;;;;;;;;;;;;;;;;;;5079725;28;19916;-79
2022/06/12 07:12:43;;;;;;;;;;;;;;;;;;5073801;28;19923;-80
2022/06/12 07:15:30;;;;;;;;;;;;;;;;;;5073316;28;19912;-79
2022/06/12 07:18:17;;;;;;;;;;;;;;;;;;5063652;28;19931;-81
2022/06/12 07:21:04;;;;;;;;;;;;;;;;;;5074517;28;19967;-80
2022/06/12 07:23:59;;;;;;;;;;;;;;;;;;5073717;28;20379;-82
2022/06/12 07:26:46;;;;;;;;;;;;;;;;;;5066178;28;19922;-78
2022/06/12 07:29:32;;;;;;;;;;;;;;;;;;5082378;28;20417;-78
2022/06/12 07:32:19;;;;;;;;;;;;;;;;;;5058511;28;19919;-81
2022/06/12 07:35:05;;;;;;;;;;;;;;;;;;5083077;28;20577;-79
2022/06/12 07:37:52;;;;;;;;;;;;;;;;;;5072717;28;19927;-79
2022/06/12 07:40:38;;;;;;;;;;;;;;;;;;5057038;28;20391;-79
2022/06/12 07:43:25;;;;;;;;;;;;;;;;;;5072950;28;20364;-79
2022/06/12 07:46:11;;;;;;;;;;;;;;;;;;5079406;28;19915;-77
2022/06/12 07:48:58;;;;;;;;;;;;;;;;;;5084841;28;19909;-78
2022/06/12 07:51:44;;;;;;;;;;;;;;;;;;5066967;28;19913;-78
2022/06/12 07:54:31;;;;;;;;;;;;;;;;;;5074432;28;19916;-78
2022/06/12 07:57:17;;;;;;;;;;;;;;;;;;5073169;28;20402;-78
2022/06/12 08:00:04;;;;;;;;;;;;;;;;;;5072110;28;19913;-78
2022/06/12 08:02:51;;;;;;;;;;;;;;;;;;5071991;28;19924;-78
2022/06/12 08:05:38;;;;;;;;;;;;;;;;;;5075969;28;19943;-78
2022/06/12 08:08:24;;;;;;;;;;;;;;;;;;5072978;28;19988;-80
2022/06/12 08:11:11;;;;;;;;;;;;;;;;;;5055479;28;20495;-78
2022/06/12 08:13:57;;;;;;;;;;;;;;;;;;5063334;28;19927;-81
2022/06/12 08:16:44;;;;;;;;;;;;;;;;;;5073294;28;19943;-79
2022/06/12 08:22:35;;;;;;;;;;;;;;;;;;5071937;28;20016;-79
2022/06/12 08:25:22;;;;;;;;;;;;;;;;;;5076138;28;19914;-79
2022/06/12 08:28:08;;;;;;;;;;;;;;;;;;5076345;28;19919;-79
2022/06/12 08:30:55;;;;;;;;;;;;;;;;;;5077939;28;20292;-80
2022/06/12 08:33:41;;;;;;;;;;;;;;;;;;5073610;28;19916;-79
2022/06/12 08:36:28;;;;;;;;;;;;;;;;;;5081813;28;19912;-79
2022/06/12 08:39:14;;;;;;;;;;;;;;;;;;5076971;28;19926;-80
2022/06/12 08:42:01;;;;;;;;;;;;;;;;;;5077321;28;20398;-80
2022/06/12 08:44:47;;;;;;;;;;;;;;;;;;5079510;28;19953;-80
2022/06/12 08:47:34;;;;;;;;;;;;;;;;;;5077182;28;19917;-80
2022/06/12 08:50:20;;;;;;;;;;;;;;;;;;5075474;28;20204;-82
2022/06/12 08:53:07;;;;;;;;;;;;;;;;;;5085478;28;19908;-79
2022/06/12 08:55:53;;;;;;;;;;;;;;;;;;5079007;28;19917;-79
2022/06/12 08:58:41;;;;;;;;;;;;;;;;;;5077717;28;19912;-78
2022/06/12 09:01:29;;;;;;;;;;;;;;;;;;5079211;28;19913;-78
2022/06/12 09:04:15;;;;;;;;;;;;;;;;;;5082399;28;19998;-78
2022/06/12 09:07:02;;;;;;;;;;;;;;;;;;5074731;28;19919;-78
2022/06/12 09:09:48;;;;;;;;;;;;;;;;;;5075718;28;20372;-79
2022/06/12 09:12:35;;;;;;;;;;;;;;;;;;5072660;28;19911;-79
2022/06/12 09:15:21;;;;;;;;;;;;;;;;;;5072456;28;20542;-78
2022/06/12 09:18:08;;;;;;;;;;;;;;;;;;5076695;28;19918;-78
2022/06/12 09:20:54;;;;;;;;;;;;;;;;;;5082888;28;20525;-82
2022/06/12 09:23:41;;;;;;;;;;;;;;;;;;5077603;28;19923;-80
2022/06/12 09:26:27;;;;;;;;;;;;;;;;;;5070295;28;20256;-80
2022/06/12 09:29:14;;;;;;;;;;;;;;;;;;5080899;28;19931;-79
2022/06/12 09:32:00;;;;;;;;;;;;;;;;;;5064709;28;20312;-80
2022/06/12 09:34:48;;;;;;;;;;;;;;;;;;5075663;28;19916;-78
2022/06/12 09:40:39;;;;;;;;;;;;;;;;;;5074648;28;19915;-78
2022/06/12 09:43:26;;;;;;;;;;;;;;;;;;5075886;28;19934;-80
2022/06/12 09:46:12;;;;;;;;;;;;;;;;;;5081922;28;20022;-81
2022/06/12 09:48:58;;;;;;;;;;;;;;;;;;5075714;28;19975;-80
2022/06/12 09:51:45;;;;;;;;;;;;;;;;;;5075579;28;19912;-81
2022/06/12 09:54:32;;;;;;;;;;;;;;;;;;5077080;28;19928;-81
2022/06/12 09:57:19;;;;;;;;;;;;;;;;;;5076924;28;19909;-86
2022/06/12 10:00:06;;;;;;;;;;;;;;;;;;5069395;28;19923;-84
2022/06/12 10:02:52;;;;;;;;;;;;;;;;;;5059142;28;19923;-81
2022/06/12 10:05:39;;;;;;;;;;;;;;;;;;5080235;28;20013;-81
2022/06/12 10:08:25;;;;;;;;;;;;;;;;;;5082626;28;19916;-82
2022/06/12 10:11:12;;;;;;;;;;;;;;;;;;5079408;28;19915;-80
2022/06/12 10:13:58;;;;;;;;;;;;;;;;;;5078127;28;19908;-82
2022/06/12 10:16:45;;;;;;;;;;;;;;;;;;5076930;28;19939;-83
2022/06/12 10:19:31;;;;;;;;;;;;;;;;;;5087347;28;19919;-82
2022/06/12 10:22:17;;;;;;;;;;;;;;;;;;5081468;28;19924;-82
2022/06/12 10:25:10;;;;;;;;;;;;;;;;;;5093994;28;19919;-81
2022/06/12 10:28:01;;;;;;;;;;;;;;;;;;5088162;28;19990;-80
2022/06/12 10:30:50;;;;;;;;;;;;;;;;;;5091928;28;19908;-80
2022/06/12 10:33:36;;;;;;;;;;;;;;;;;;5084197;28;20121;-80
2022/06/12 10:36:23;;;;;;;;;;;;;;;;;;5078881;28;19923;-79
2022/06/12 10:39:09;;;;;;;;;;;;;;;;;;5083362;28;19924;-77
2022/06/12 10:41:56;;;;;;;;;;;;;;;;;;5067025;28;19967;-77
2022/06/12 10:44:42;;;;;;;;;;;;;;;;;;5076825;28;19916;-78
2022/06/12 10:47:29;;;;;;;;;;;;;;;;;;5070025;28;19916;-78
2022/06/12 10:50:15;;;;;;;;;;;;;;;;;;5070471;28;19923;-79
2022/06/12 10:53:02;;;;;;;;;;;;;;;;;;5071118;28;19908;-80
2022/06/12 10:55:48;;;;;;;;;;;;;;;;;;5074107;28;19922;-82
2022/06/12 10:58:35;;;;;;;;;;;;;;;;;;5067626;28;20021;-81
2022/06/12 11:01:21;;;;;;;;;;;;;;;;;;5091397;28;20280;-80
2022/06/12 11:04:08;;;;;;;;;;;;;;;;;;5078729;28;19923;-78
2022/06/12 11:06:54;;;;;;;;;;;;;;;;;;5073565;28;20296;-83
2022/06/12 11:09:40;;;;;;;;;;;;;;;;;;5077085;28;19912;-82
2022/06/12 11:12:27;;;;;;;;;;;;;;;;;;5073317;28;19917;-83
2022/06/12 11:15:13;;;;;;;;;;;;;;;;;;5072361;28;20396;-83
2022/06/12 11:18:00;;;;;;;;;;;;;;;;;;5076902;28;20373;-82
2022/06/12 11:20:46;;;;;;;;;;;;;;;;;;5059768;28;19912;-82
2022/06/12 11:23:33;;;;;;;;;;;;;;;;;;5078546;28;19928;-81
2022/06/12 11:26:19;;;;;;;;;;;;;;;;;;5074143;28;19912;-82
2022/06/12 11:29:06;;;;;;;;;;;;;;;;;;5066822;28;19916;-82
2022/06/12 11:31:52;;;;;;;;;;;;;;;;;;5061234;28;19948;-83
2022/06/12 11:34:39;;;;;;;;;;;;;;;;;;5073909;28;19913;-82
2022/06/12 11:37:25;;;;;;;;;;;;;;;;;;5080670;28;19930;-82
2022/06/12 11:40:12;;;;;;;;;;;;;;;;;;5059216;28;19919;-84
2022/06/12 11:42:58;;;;;;;;;;;;;;;;;;5079290;28;20313;-84
2022/06/12 11:45:45;;;;;;;;;;;;;;;;;;5077806;28;19934;-84
2022/06/12 11:48:31;;;;;;;;;;;;;;;;;;5077996;28;19915;-82
2022/06/12 11:51:18;;;;;;;;;;;;;;;;;;5078332;28;19908;-93
2022/06/12 11:54:04;;;;;;;;;;;;;;;;;;5089304;28;19912;-91
2022/06/12 11:56:51;;;;;;;;;;;;;;;;;;5086960;28;19912;-94
2022/06/12 11:59:37;;;;;;;;;;;;;;;;;;5082441;28;19912;-91
2022/06/12 12:02:24;;;;;;;;;;;;;;;;;;5083511;28;19922;-91
2022/06/12 12:05:10;;;;;;;;;;;;;;;;;;5096788;28;19908;-92
2022/06/12 12:07:57;;;;;;;;;;;;;;;;;;5075510;28;19912;-91
2022/06/12 12:10:43;;;;;;;;;;;;;;;;;;5091299;28;19926;-92
2022/06/12 12:13:30;;;;;;;;;;;;;;;;;;5082700;28;19938;-90
2022/06/12 12:16:16;;;;;;;;;;;;;;;;;;5081362;28;19934;-90
2022/06/12 12:19:03;;;;;;;;;;;;;;;;;;5078871;28;19908;-90
2022/06/12 12:21:50;;;;;;;;;;;;;;;;;;5078995;28;20363;-92
2022/06/12 12:24:37;;;;;;;;;;;;;;;;;;5072605;28;19912;-91
2022/06/12 12:27:24;;;;;;;;;;;;;;;;;;5083871;28;20290;-94
2022/06/12 12:30:10;;;;;;;;;;;;;;;;;;5096277;28;19912;-89
2022/06/12 12:32:56;;;;;;;;;;;;;;;;;;5092572;28;19915;-91
2022/06/12 12:41:53;;;;;;;;;;;;;;;;;;5093496;28;19918;-89
2022/06/12 12:44:40;;;;;;;;;;;;;;;;;;5076503;28;19920;-85
2022/06/12 12:47:29;;;;;;;;;;;;;;;;;;5068408;28;19918;-89
2022/06/12 12:50:16;;;;;;;;;;;;;;;;;;5089241;28;19924;-92
2022/06/12 12:53:02;;;;;;;;;;;;;;;;;;5084134;28;19919;-90
2022/06/12 12:55:49;;;;;;;;;;;;;;;;;;5091635;28;19912;-89
2022/06/12 12:58:35;;;;;;;;;;;;;;;;;;5086157;28;19914;-90
2022/06/12 13:01:22;;;;;;;;;;;;;;;;;;5094773;28;19995;-90
2022/06/12 13:04:08;;;;;;;;;;;;;;;;;;5099516;28;19930;-93
2022/06/12 13:06:55;;;;;;;;;;;;;;;;;;5101661;28;19922;-92
2022/06/12 13:09:41;;;;;;;;;;;;;;;;;;5082780;28;19915;-91
2022/06/12 13:12:28;;;;;;;;;;;;;;;;;;5074550;28;19909;-90
2022/06/12 13:15:14;;;;;;;;;;;;;;;;;;5077197;28;19924;-87
2022/06/12 13:18:01;;;;;;;;;;;;;;;;;;5086585;28;19922;-90
2022/06/12 13:20:50;;;;;;;;;;;;;;;;;;5088292;28;19916;-91
2022/06/12 13:23:36;;;;;;;;;;;;;;;;;;5091028;28;19924;-89
2022/06/12 13:26:23;;;;;;;;;;;;;;;;;;5089851;28;19920;-88
2022/06/12 13:29:09;;;;;;;;;;;;;;;;;;5063355;28;20357;-90
2022/06/12 13:31:56;;;;;;;;;;;;;;;;;;5087968;28;19923;-85
2022/06/12 13:34:45;;;;;;;;;;;;;;;;;;5084826;28;20428;-87
2022/06/12 13:37:31;;;;;;;;;;;;;;;;;;5068499;28;19916;-85
2022/06/12 13:40:18;;;;;;;;;;;;;;;;;;5075479;28;19913;-84
2022/06/12 13:43:04;;;;;;;;;;;;;;;;;;5078189;28;19920;-86
2022/06/12 13:45:51;;;;;;;;;;;;;;;;;;5080801;28;19915;-89
2022/06/12 13:48:37;;;;;;;;;;;;;;;;;;5086714;28;20292;-91
2022/06/12 13:51:24;;;;;;;;;;;;;;;;;;5085735;28;19909;-87
2022/06/12 13:54:11;;;;;;;;;;;;;;;;;;5077404;28;19927;-93
2022/06/12 13:56:57;;;;;;;;;;;;;;;;;;5078099;28;19923;-87
2022/06/12 13:59:44;;;;;;;;;;;;;;;;;;5065049;28;19919;-88
2022/06/12 14:02:31;;;;;;;;;;;;;;;;;;5084959;28;19920;-87
2022/06/12 14:05:17;;;;;;;;;;;;;;;;;;5071103;28;19920;-87
2022/06/12 14:08:04;;;;;;;;;;;;;;;;;;5059653;28;20246;-88
2022/06/12 14:10:50;;;;;;;;;;;;;;;;;;5082010;28;19914;-87
2022/06/12 14:13:37;;;;;;;;;;;;;;;;;;5080330;28;19908;-87
2022/06/12 14:16:23;;;;;;;;;;;;;;;;;;5078253;28;19919;-87
2022/06/12 14:19:10;;;;;;;;;;;;;;;;;;5076472;28;19912;-87
2022/06/12 14:21:56;;;;;;;;;;;;;;;;;;5073421;28;19935;-86
2022/06/12 14:24:43;;;;;;;;;;;;;;;;;;5080490;28;19928;-87
2022/06/12 14:27:30;;;;;;;;;;;;;;;;;;5079501;28;19915;-87
2022/06/12 14:30:16;;;;;;;;;;;;;;;;;;5079312;28;19919;-87
2022/06/12 14:33:03;;;;;;;;;;;;;;;;;;5077377;28;19919;-85
2022/06/12 14:35:49;;;;;;;;;;;;;;;;;;5077629;28;20003;-91
2022/06/12 14:38:36;;;;;;;;;;;;;;;;;;5085887;28;20270;-88
2022/06/12 14:41:22;;;;;;;;;;;;;;;;;;5075966;28;20364;-87
2022/06/12 14:44:09;;;;;;;;;;;;;;;;;;5077247;28;19923;-87
2022/06/12 14:46:55;;;;;;;;;;;;;;;;;;5076864;28;19915;-87
2022/06/12 14:49:42;;;;;;;;;;;;;;;;;;5079058;28;20265;-87
2022/06/12 14:52:28;;;;;;;;;;;;;;;;;;5075165;28;19919;-87
2022/06/12 14:55:15;;;;;;;;;;;;;;;;;;5074730;28;19920;-87
2022/06/12 14:58:01;;;;;;;;;;;;;;;;;;5074423;28;19935;-85
2022/06/12 15:00:48;;;;;;;;;;;;;;;;;;5079719;28;19924;-83
2022/06/12 15:03:34;;;;;;;;;;;;;;;;;;5076175;28;19923;-86
2022/06/12 15:06:21;;;;;;;;;;;;;;;;;;5073244;28;19915;-87
2022/06/12 15:09:07;;;;;;;;;;;;;;;;;;5078192;28;19908;-86
2022/06/12 15:11:54;;;;;;;;;;;;;;;;;;5080783;28;19923;-86
2022/06/12 15:14:40;;;;;;;;;;;;;;;;;;5078812;28;20283;-87
2022/06/12 15:17:27;;;;;;;;;;;;;;;;;;5067140;28;19923;-86
2022/06/12 15:20:13;;;;;;;;;;;;;;;;;;5061901;28;20376;-86
2022/06/12 15:23:00;;;;;;;;;;;;;;;;;;5069775;28;20276;-88
2022/06/12 15:31:57;;;;;;;;;;;;;;;;;;5086455;28;19912;-86
2022/06/12 15:34:44;;;;;;;;;;;;;;;;;;5081662;28;19919;-87
2022/06/12 15:37:30;;;;;;;;;;;;;;;;;;5079445;28;19938;-84
2022/06/12 15:40:17;;;;;;;;;;;;;;;;;;5073416;28;20292;-84
2022/06/12 15:43:03;;;;;;;;;;;;;;;;;;5077447;28;19924;-84
2022/06/12 15:45:50;;;;;;;;;;;;;;;;;;5078026;28;19912;-85
2022/06/12 15:48:36;;;;;;;;;;;;;;;;;;5075279;28;19922;-85
2022/06/12 15:51:23;;;;;;;;;;;;;;;;;;5079451;28;19923;-88
2022/06/12 15:54:16;;;;;;;;;;;;;;;;;;5081232;28;20356;-92
2022/06/12 15:57:03;;;;;;;;;;;;;;;;;;5081101;28;19924;-91
2022/06/12 15:59:49;;;;;;;;;;;;;;;;;;5079433;28;19919;-86
2022/06/12 16:02:36;;;;;;;;;;;;;;;;;;5080170;28;20014;-84
2022/06/12 16:05:23;;;;;;;;;;;;;;;;;;5075562;28;19912;-83
2022/06/12 16:08:10;;;;;;;;;;;;;;;;;;5058688;28;19916;-81
2022/06/12 16:10:56;;;;;;;;;;;;;;;;;;5077593;28;19916;-85
2022/06/12 16:13:43;;;;;;;;;;;;;;;;;;5074740;28;19908;-84
2022/06/12 16:16:29;;;;;;;;;;;;;;;;;;5078806;28;20340;-84
2022/06/12 16:19:16;;;;;;;;;;;;;;;;;;5080335;28;19927;-83
2022/06/12 16:22:02;;;;;;;;;;;;;;;;;;5077988;28;20288;-84
2022/06/12 16:24:48;;;;;;;;;;;;;;;;;;5087060;28;19996;-84
2022/06/12 16:27:35;;;;;;;;;;;;;;;;;;5059483;28;20291;-84
2022/06/12 16:30:21;;;;;;;;;;;;;;;;;;5082058;28;19908;-84
2022/06/12 16:33:09;;;;;;;;;;;;;;;;;;5082773;28;20391;-84
2022/06/12 16:35:55;;;;;;;;;;;;;;;;;;5063574;28;19912;-84
2022/06/12 16:38:42;;;;;;;;;;;;;;;;;;5062907;28;19928;-83
2022/06/12 16:44:34;;;;;;;;;;;;;;;;;;5077628;28;19917;-85
2022/06/12 16:47:21;;;;;;;;;;;;;;;;;;5087539;28;20413;-85
2022/06/12 16:50:07;;;;;;;;;;;;;;;;;;5083741;28;19909;-84
2022/06/12 16:52:53;;;;;;;;;;;;;;;;;;5080831;28;20340;-84
2022/06/12 16:55:40;;;;;;;;;;;;;;;;;;5078047;28;19927;-85
2022/06/12 16:58:27;;;;;;;;;;;;;;;;;;5082506;28;19916;-85
2022/06/12 17:01:13;;;;;;;;;;;;;;;;;;5087040;28;19927;-83
2022/06/12 17:04:00;;;;;;;;;;;;;;;;;;5086549;28;20524;-80
2022/06/12 17:06:46;;;;;;;;;;;;;;;;;;5073777;28;19920;-82
2022/06/12 17:09:33;;;;;;;;;;;;;;;;;;5089159;28;19915;-83
2022/06/12 17:12:20;;;;;;;;;;;;;;;;;;5090703;28;19967;-83
2022/06/12 17:15:06;;;;;;;;;;;;;;;;;;5083964;28;19926;-85
2022/06/12 17:20:58;;;;;;;;;;;;;;;;;;5078722;28;19908;-83
2022/06/12 17:23:45;;;;;;;;;;;;;;;;;;5073080;28;20373;-83
2022/06/12 17:26:32;;;;;;;;;;;;;;;;;;5075837;28;20289;-84
2022/06/12 17:29:18;;;;;;;;;;;;;;;;;;5075636;28;19915;-83
2022/06/12 17:32:05;;;;;;;;;;;;;;;;;;5061125;28;19919;-82
2022/06/12 17:34:51;;;;;;;;;;;;;;;;;;5070850;28;19940;-83
2022/06/12 17:37:38;;;;;;;;;;;;;;;;;;5063764;28;20661;-84
2022/06/12 17:40:24;;;;;;;;;;;;;;;;;;5074958;28;19912;-84
2022/06/12 17:43:12;;;;;;;;;;;;;;;;;;5075738;28;20285;-83
2022/06/12 17:46:01;;;;;;;;;;;;;;;;;;5076025;28;19944;-83
2022/06/12 17:48:47;;;;;;;;;;;;;;;;;;5077424;28;19919;-83
2022/06/12 17:51:34;;;;;;;;;;;;;;;;;;5082267;28;19925;-84
2022/06/12 17:54:21;;;;;;;;;;;;;;;;;;5083055;28;19908;-82
2022/06/12 17:57:10;;;;;;;;;;;;;;;;;;5075565;28;19920;-83
2022/06/12 17:59:56;;;;;;;;;;;;;;;;;;5071938;28;19934;-81
2022/06/12 18:02:43;;;;;;;;;;;;;;;;;;5061523;28;19912;-81
2022/06/12 18:05:30;;;;;;;;;;;;;;;;;;5078209;28;20379;-81
2022/06/12 18:08:17;;;;;;;;;;;;;;;;;;5069713;28;19916;-82
2022/06/12 18:11:03;;;;;;;;;;;;;;;;;;5076876;28;19913;-83
2022/06/12 18:13:50;;;;;;;;;;;;;;;;;;5071449;28;19908;-84
2022/06/12 18:19:42;;;;;;;;;;;;;;;;;;5075425;28;19909;-83
2022/06/12 18:22:28;;;;;;;;;;;;;;;;;;5056440;28;20386;-83
2022/06/12 18:25:15;;;;;;;;;;;;;;;;;;5073636;28;19951;-83
2022/06/12 18:28:01;;;;;;;;;;;;;;;;;;5070251;28;20280;-83
2022/06/12 18:30:48;;;;;;;;;;;;;;;;;;5075713;28;19913;-83
2022/06/12 18:33:34;;;;;;;;;;;;;;;;;;5069435;28;19913;-84
2022/06/12 18:36:24;;;;;;;;;;;;;;;;;;5076632;28;20410;-82
2022/06/12 18:39:11;;;;;;;;;;;;;;;;;;5070766;28;19920;-82
2022/06/12 18:41:57;;;;;;;;;;;;;;;;;;5074720;28;19908;-83
2022/06/12 18:44:44;;;;;;;;;;;;;;;;;;5072995;28;20429;-82
2022/06/12 18:47:30;;;;;;;;;;;;;;;;;;5079102;28;19923;-92
2022/06/12 18:50:17;;;;;;;;;;;;;;;;;;5077599;28;19916;-88
2022/06/12 18:53:03;;;;;;;;;;;;;;;;;;5078187;28;19912;-87
2022/06/12 18:55:50;;;;;;;;;;;;;;;;;;5078222;28;20355;-83
2022/06/12 18:58:36;;;;;;;;;;;;;;;;;;5066524;28;19912;-82
2022/06/12 19:01:23;;;;;;;;;;;;;;;;;;5075420;28;20544;-82
2022/06/12 19:04:10;;;;;;;;;;;;;;;;;;5078913;28;19924;-84
2022/06/12 19:06:57;;;;;;;;;;;;;;;;;;5082349;28;19912;-88
2022/06/12 19:09:43;;;;;;;;;;;;;;;;;;5063546;28;19923;-87
2022/06/12 19:12:30;;;;;;;;;;;;;;;;;;5087313;28;20282;-86
2022/06/12 19:15:16;;;;;;;;;;;;;;;;;;5061547;28;19920;-88
2022/06/12 19:18:03;;;;;;;;;;;;;;;;;;5067077;28;19912;-91
2022/06/12 19:20:49;;;;;;;;;;;;;;;;;;5084180;28;19912;-93
2022/06/12 19:23:36;;;;;;;;;;;;;;;;;;5067716;28;19920;-88
2022/06/12 19:26:22;;;;;;;;;;;;;;;;;;5059876;28;19912;-88
2022/06/12 19:29:09;;;;;;;;;;;;;;;;;;5066253;28;19913;-86
2022/06/12 19:32:18;;;;;;;;;;;;;;;;;;5087507;28;19912;-92
2022/06/12 19:35:06;;;;;;;;;;;;;;;;;;5082733;28;19919;-90